EDT,Max TemperatureF,Mean TemperatureF,Min TemperatureF,Max Dew PointF,MeanDew PointF,Min DewpointF,Max Humidity, Mean Humidity, Min Humidity, Max Sea Level PressureIn, Mean Sea Level PressureIn, Min Sea Level PressureIn, Max VisibilityMiles, Mean VisibilityMiles, Min VisibilityMiles, Max Wind SpeedMPH, Mean Wind SpeedMPH, Max Gust SpeedMPH,PrecipitationIn, CloudCover, Events, WindDirDegrees
2012-4-1,53,34,18,36,28,15,100,79,28,29.90,29.74,29.65,10,10,2,14,2,21,0.06,5,Rain,9
2012-4-2,52,40,25,36,23,5,100,63,17,29.80,29.69,29.63,10,10,10,18,6,30,0.01,4,Rain,346
2012-4-3,55,40,25,25,14,5,62,35,23,29.81,29.75,29.69,10,10,10,12,4,18,0.00,1,,336
2012-4-4,55,46,37,26,20,13,65,37,22,29.68,29.56,29.44,10,10,10,15,5,33,0.00,5,,293
2012-4-5,50,38,26,26,21,19,81,50,33,29.87,29.74,29.61,10,10,10,16,5,23,0.00,6,,311
2012-4-6,52,34,19,27,17,12,96,55,23,29.98,29.91,29.86,10,9,2,13,3,20,0.00,1,,332
2012-4-7,48,37,28,26,20,14,72,49,33,30.02,29.98,29.95,10,10,10,15,6,30,0.00,6,,355
2012-4-8,45,40,35,34,26,22,82,57,42,29.96,29.74,29.57,10,10,10,13,6,23,0.00,8,,315
2012-4-9,51,44,39,36,32,27,79,65,52,29.54,29.45,29.39,10,10,10,14,6,25,0.00,4,,238
2012-4-10,57,48,41,34,32,29,76,59,40,29.73,29.59,29.52,10,10,10,12,7,21,0.00,2,,240
2012-4-11,57,40,27,37,32,26,100,68,35,29.89,29.82,29.73,10,10,10,8,3,,0.00,5,,274
2012-4-12,57,41,28,37,30,25,100,75,33,30.09,29.95,29.88,10,8,1,10,2,18,0.00,4,,354
2012-4-13,63,43,24,33,23,15,100,61,16,30.13,30.07,29.98,10,8,1,12,2,22,0.00,0,,289
2012-4-14,71,53,36,31,23,19,67,31,16,30.09,30.01,29.93,10,10,10,12,6,18,0.00,1,,245
2012-4-15,80,58,37,50,39,27,79,46,25,29.96,29.91,29.83,10,10,10,14,3,23,0.00,2,,243
2012-4-16,88,75,62,57,52,44,75,48,22,29.97,29.90,29.82,10,10,10,15,3,23,0.00,2,,192
2012-4-17,84,68,52,52,36,19,87,38,11,30.14,29.96,29.83,10,10,10,14,5,22,0.00,0,,287
2012-4-18,62,48,35,36,29,24,93,52,25,30.24,30.17,30.12,10,10,10,8,3,,0.00,0,,28
2012-4-19,69,48,28,42,34,25,100,85,19,30.13,30.08,29.94,10,4,0,20,1,24,0.00,1,Fog,166
2012-4-20,80,56,33,45,37,33,100,82,22,29.99,29.94,29.82,10,4,0,14,1,22,0.00,2,Fog,195
2012-4-21,78,65,53,53,49,42,77,62,36,29.83,29.75,29.63,10,10,10,15,5,22,0.00,6,,139
2012-4-22,54,46,39,47,42,37,100,87,69,29.95,29.83,29.73,10,8,4,12,6,17,0.76,8,Rain,49
2012-4-23,51,43,35,52,43,34,100,96,87,29.85,29.48,29.34,10,4,1,15,8,24,1.65,8,Rain,16
2012-4-24,54,44,34,48,37,27,96,70,38,29.68,29.47,29.38,10,10,10,14,6,25,0.01,6,Rain,178
2012-4-25,59,44,30,38,30,23,100,74,31,29.84,29.73,29.68,10,6,0,10,2,20,0.00,2,Fog,263
2012-4-26,62,45,30,43,34,25,96,70,27,29.91,29.76,29.60,10,8,2,12,3,20,0.32,5,Rain,154
2012-4-27,50,42,34,45,35,19,100,77,48,29.92,29.61,29.46,10,9,3,21,5,36,0.39,6,Rain,294
2012-4-28,51,40,30,19,14,7,59,37,18,30.10,30.03,29.96,10,10,10,15,12,31,0.00,1,,286
2012-4-29,51,42,35,12,9,3,39,26,15,30.18,30.06,30.01,10,10,10,20,9,32,0.00,0,,292
2012-4-30,63,45,28,34,21,11,66,37,17,30.30,30.22,30.17,10,10,10,8,3,,0.00,0,,16